TimeCDT,TemperatureF,Dew PointF,Humidity,Sea Level PressureIn,VisibilityMPH,Wind Direction,Wind SpeedMPH,Gust SpeedMPH,PrecipitationIn,Events,Conditions,WindDirDegrees,DateUTC
12:15 AM,42.8,37.4,81,30.24,10.0,NNW,6.9,-,N/A,,Overcast,340,2012-10-07 05:15:00
12:35 AM,42.8,37.4,81,30.23,10.0,NNW,6.9,-,N/A,,Overcast,330,2012-10-07 05:35:00
12:55 AM,42.8,37.4,81,30.23,10.0,NNW,4.6,-,N/A,,Overcast,330,2012-10-07 05:55:00
1:15 AM,42.8,37.4,81,30.24,10.0,NW,6.9,-,N/A,,Overcast,320,2012-10-07 06:15:00
1:35 AM,42.8,37.4,81,30.24,10.0,NW,4.6,-,N/A,,Overcast,310,2012-10-07 06:35:00
1:55 AM,42.8,37.4,81,30.25,10.0,NW,4.6,-,N/A,,Overcast,320,2012-10-07 06:55:00
2:15 AM,42.8,37.4,81,30.24,10.0,NW,3.5,-,N/A,,Overcast,320,2012-10-07 07:15:00
2:35 AM,42.8,37.4,81,30.24,10.0,NW,4.6,-,N/A,,Overcast,320,2012-10-07 07:35:00
2:55 AM,42.8,39.2,87,30.24,10.0,NW,5.8,-,N/A,,Overcast,310,2012-10-07 07:55:00
3:15 AM,42.8,39.2,87,30.24,10.0,NW,4.6,-,N/A,,Overcast,310,2012-10-07 08:15:00
3:35 AM,42.8,37.4,81,30.24,10.0,NW,6.9,-,N/A,,Overcast,310,2012-10-07 08:35:00
3:55 AM,42.8,39.2,87,30.24,10.0,NW,6.9,-,N/A,,Overcast,310,2012-10-07 08:55:00
4:15 AM,42.8,39.2,87,30.23,10.0,NW,6.9,-,N/A,,Overcast,320,2012-10-07 09:15:00
4:35 AM,42.8,39.2,87,30.23,10.0,NW,4.6,-,N/A,,Overcast,310,2012-10-07 09:35:00
4:55 AM,42.8,39.2,87,30.23,10.0,Calm,Calm,-,N/A,,Overcast,0,2012-10-07 09:55:00
5:15 AM,41.0,41.0,100,30.24,10.0,WNW,3.5,-,N/A,,Unknown,300,2012-10-07 10:15:00
5:35 AM,41.0,39.2,93,30.24,10.0,Calm,Calm,-,N/A,,Scattered Clouds,0,2012-10-07 10:35:00
5:55 AM,39.2,39.2,100,30.25,10.0,WNW,3.5,-,N/A,,Clear,290,2012-10-07 10:55:00
6:15 AM,39.2,39.2,100,30.25,10.0,Calm,Calm,-,N/A,,Clear,0,2012-10-07 11:15:00
6:35 AM,39.2,39.2,100,30.25,10.0,Calm,Calm,-,N/A,,Clear,0,2012-10-07 11:35:00
6:55 AM,39.2,39.2,100,30.25,10.0,Calm,Calm,-,N/A,,Clear,0,2012-10-07 11:55:00
7:15 AM,37.4,37.4,100,30.26,10.0,West,3.5,-,N/A,,Clear,270,2012-10-07 12:15:00
7:35 AM,37.4,37.4,100,30.26,10.0,Calm,Calm,-,N/A,,Clear,0,2012-10-07 12:35:00
7:55 AM,39.2,39.2,100,30.25,10.0,Calm,Calm,-,N/A,,Clear,0,2012-10-07 12:55:00
8:15 AM,41.0,41.0,100,30.26,10.0,WNW,4.6,-,N/A,,Clear,300,2012-10-07 13:15:00
8:35 AM,42.8,42.8,100,30.26,10.0,WNW,4.6,-,N/A,,Clear,290,2012-10-07 13:35:00
8:55 AM,44.6,41.0,87,30.27,10.0,WNW,4.6,-,N/A,,Clear,290,2012-10-07 13:55:00
9:15 AM,44.6,39.2,81,30.27,10.0,NW,5.8,-,N/A,,Clear,310,2012-10-07 14:15:00
9:35 AM,46.4,37.4,71,30.28,10.0,NW,6.9,-,N/A,,Clear,320,2012-10-07 14:35:00
9:55 AM,46.4,33.8,62,30.28,10.0,NNW,5.8,-,N/A,,Scattered Clouds,330,2012-10-07 14:55:00
10:15 AM,46.4,32.0,57,30.28,10.0,NW,3.5,-,N/A,,Scattered Clouds,320,2012-10-07 15:15:00
10:35 AM,48.2,30.2,50,30.28,10.0,NW,5.8,-,N/A,,Scattered Clouds,320,2012-10-07 15:35:00
10:55 AM,48.2,28.4,46,30.28,10.0,NW,6.9,-,N/A,,Scattered Clouds,320,2012-10-07 15:55:00
11:15 AM,48.2,30.2,50,30.28,10.0,NW,5.8,-,N/A,,Mostly Cloudy,320,2012-10-07 16:15:00
11:35 AM,48.2,30.2,50,30.28,10.0,WNW,5.8,-,N/A,,Mostly Cloudy,290,2012-10-07 16:35:00
11:55 AM,50.0,30.2,47,30.27,10.0,NW,11.5,16.1,N/A,,Scattered Clouds,310,2012-10-07 16:55:00
12:15 PM,48.2,30.2,50,30.27,10.0,NW,6.9,-,N/A,,Scattered Clouds,320,2012-10-07 17:15:00
12:35 PM,50.0,30.2,47,30.26,10.0,NNW,4.6,-,N/A,,Scattered Clouds,330,2012-10-07 17:35:00
1:15 PM,51.8,30.2,44,30.25,10.0,NNW,6.9,-,N/A,,Scattered Clouds,330,2012-10-07 18:15:00
1:35 PM,51.8,26.6,38,30.24,10.0,NW,3.5,-,N/A,,Scattered Clouds,310,2012-10-07 18:35:00
2:15 PM,51.8,24.8,35,30.22,10.0,West,9.2,-,N/A,,Clear,280,2012-10-07 19:15:00
2:55 PM,53.6,24.8,33,30.21,10.0,NNW,4.6,-,N/A,,Clear,340,2012-10-07 19:55:00
6:15 PM,50.0,26.6,40,30.19,10.0,Calm,Calm,-,N/A,,Clear,0,2012-10-07 23:15:00
6:35 PM,48.2,30.2,50,30.19,10.0,Calm,Calm,-,N/A,,Clear,0,2012-10-07 23:35:00
9:35 PM,42.8,42.8,100,30.22,7.0,Calm,Calm,-,N/A,,Clear,0,2012-10-08 02:35:00
10:35 PM,41.0,41.0,100,30.21,10.0,Calm,Calm,-,N/A,,Clear,0,2012-10-08 03:35:00
10:55 PM,41.0,41.0,100,30.21,10.0,Calm,Calm,-,N/A,,Clear,0,2012-10-08 03:55:00
11:15 PM,39.2,39.2,100,30.20,10.0,Calm,Calm,-,N/A,,Clear,0,2012-10-08 04:15:00
11:35 PM,39.2,39.2,100,30.20,10.0,Calm,Calm,-,N/A,,Clear,0,2012-10-08 04:35:00
11:55 PM,41.0,41.0,100,30.21,10.0,Calm,Calm,-,N/A,,Clear,0,2012-10-08 04:55:00